Time;durP1;ratioP1;P1;durP2;ratioP2;P2;SDS_P1;SDS_P2;PMS_P1;PMS_P2;Temp;Humidity;BMP_temperature;BMP_pressure;BME280_temperature;BME280_humidity;BME280_pressure;Samples;Min_cycle;Max_cycle;Signal;HPM_P1;HPM_P2
2023/12/12 00:00:16;;;;;;;14.80;10.10;;;;;;;6.42;90.71;98579.11;131929;1247;107542;-86
2023/12/12 00:03:42;;;;;;;13.40;8.20;;;;;;;6.40;90.80;98578.74;131890;1248;109138;-89
2023/12/12 00:06:48;;;;;;;13.30;8.40;;;;;;;6.37;90.84;98585.41;131596;1252;106301;-87
2023/12/12 00:09:53;;;;;;;14.70;8.30;;;;;;;6.38;90.81;98583.63;131629;1261;108389;-87
2023/12/12 00:12:59;;;;;;;15.80;9.00;;;;;;;6.41;90.93;98582.66;131627;1251;106741;-88
2023/12/12 00:16:06;;;;;;;16.10;9.50;;;;;;;6.45;90.92;98587.55;131704;1252;106401;-87
2023/12/12 00:19:12;;;;;;;15.50;10.10;;;;;;;6.49;90.79;98595.63;131725;1251;106548;-85
2023/12/12 00:22:18;;;;;;;15.60;9.80;;;;;;;6.47;90.88;98597.59;131817;1250;106468;-87
2023/12/12 00:25:23;;;;;;;13.80;9.40;;;;;;;6.47;90.82;98597.25;131705;1255;106193;-88
2023/12/12 00:28:29;;;;;;;13.40;8.60;;;;;;;6.46;90.76;98603.02;131747;1248;108646;-86
2023/12/12 00:31:34;;;;;;;14.00;8.70;;;;;;;6.43;90.86;98607.95;131689;1248;108536;-86
2023/12/12 00:34:40;;;;;;;15.60;9.20;;;;;;;6.44;90.95;98609.95;131680;1251;106743;-87
2023/12/12 00:37:46;;;;;;;15.50;9.60;;;;;;;6.46;90.85;98612.02;131646;1247;108325;-86
2023/12/12 00:40:55;;;;;;;15.00;9.90;;;;;;;6.49;90.82;98608.34;131825;1247;108573;-86
2023/12/12 00:44:01;;;;;;;14.20;9.90;;;;;;;6.51;90.99;98608.66;131744;1248;107659;-86
2023/12/12 00:47:07;;;;;;;16.30;11.20;;;;;;;6.51;90.77;98609.58;131734;1246;108022;-86
2023/12/12 00:50:13;;;;;;;15.60;10.50;;;;;;;6.50;90.87;98613.34;131798;1247;107269;-85
2023/12/12 00:53:18;;;;;;;15.20;9.80;;;;;;;6.47;91.15;98612.99;131730;1250;106925;-85
2023/12/12 00:56:24;;;;;;;13.40;9.10;;;;;;;6.41;91.07;98618.63;131637;1248;107714;-86
2023/12/12 00:59:30;;;;;;;13.70;9.50;;;;;;;6.40;91.17;98623.42;131653;1250;107581;-85
2023/12/12 01:02:35;;;;;;;14.70;10.00;;;;;;;6.43;91.02;98622.21;131659;1250;106467;-87
2023/12/12 01:05:41;;;;;;;15.10;9.90;;;;;;;6.47;91.20;98622.99;131800;1250;106915;-86
2023/12/12 01:08:47;;;;;;;15.50;10.50;;;;;;;6.51;91.27;98627.35;131658;1248;107620;-86
2023/12/12 01:11:52;;;;;;;17.70;10.40;;;;;;;6.53;91.01;98633.18;131536;1250;223090;-86
2023/12/12 01:14:59;;;;;;;14.50;9.90;;;;;;;6.51;91.13;98637.46;131716;1250;107731;-86
2023/12/12 01:18:05;;;;;;;16.40;10.10;;;;;;;6.49;91.18;98642.60;131769;1248;108841;-86
2023/12/12 01:21:10;;;;;;;14.90;9.70;;;;;;;6.48;91.28;98640.40;131630;1250;108730;-86
2023/12/12 01:24:16;;;;;;;17.00;10.20;;;;;;;6.49;91.22;98641.86;131686;1251;108569;-86
2023/12/12 01:27:21;;;;;;;16.30;10.70;;;;;;;6.53;91.32;98645.17;131736;1261;107773;-86
2023/12/12 01:30:27;;;;;;;26.90;14.20;;;;;;;6.57;91.13;98642.96;131656;1254;107621;-87
2023/12/12 01:33:33;;;;;;;23.70;13.50;;;;;;;6.60;91.50;98647.55;131852;1250;108401;-86
2023/12/12 01:36:38;;;;;;;20.70;13.00;;;;;;;6.60;91.51;98651.83;131740;1250;108721;-86
2023/12/12 01:39:44;;;;;;;15.50;10.00;;;;;;;6.59;91.55;98653.35;131632;1248;108145;-86
2023/12/12 01:42:49;;;;;;;16.50;9.90;;;;;;;6.58;91.63;98661.22;131748;1251;107615;-86
2023/12/12 01:45:59;;;;;;;18.80;11.70;;;;;;;6.60;91.60;98663.70;131685;1261;108238;-86
2023/12/12 01:49:06;;;;;;;15.60;10.90;;;;;;;6.64;91.53;98667.51;131674;1250;108627;-86
2023/12/12 01:52:13;;;;;;;17.10;11.40;;;;;;;6.69;91.52;98669.77;131608;1251;106221;-86
2023/12/12 01:55:18;;;;;;;17.60;11.90;;;;;;;6.73;91.60;98676.23;131716;1248;106260;-85
2023/12/12 01:58:26;;;;;;;18.50;11.90;;;;;;;6.76;91.72;98673.83;131661;1247;107580;-85
2023/12/12 02:01:33;;;;;;;17.00;11.10;;;;;;;6.77;91.91;98675.88;131735;1250;107013;-85
2023/12/12 02:04:38;;;;;;;17.10;10.70;;;;;;;6.74;91.68;98680.38;131850;1251;106558;-86
2023/12/12 02:07:46;;;;;;;16.60;11.20;;;;;;;6.75;92.03;98680.14;131763;1253;106679;-86
2023/12/12 02:10:51;;;;;;;16.40;11.20;;;;;;;6.78;92.12;98681.89;131751;1248;106040;-85
2023/12/12 02:13:57;;;;;;;16.20;12.10;;;;;;;6.80;92.14;98687.98;131767;1247;106688;-85
2023/12/12 02:17:03;;;;;;;17.00;11.90;;;;;;;6.85;92.01;98691.03;131677;1251;107728;-85
2023/12/12 02:20:11;;;;;;;18.60;12.10;;;;;;;6.84;92.02;98692.16;131772;1248;108484;-86
2023/12/12 02:23:16;;;;;;;18.80;11.50;;;;;;;6.82;92.18;98693.91;131705;1250;107812;-85
2023/12/12 02:26:22;;;;;;;16.60;11.00;;;;;;;6.81;92.38;98691.77;131714;1248;108007;-86
2023/12/12 02:29:27;;;;;;;31.10;18.50;;;;;;;6.82;92.23;98697.46;131767;1246;108590;-86
2023/12/12 02:32:33;;;;;;;31.40;15.70;;;;;;;6.85;92.34;98699.71;131814;1248;107679;-86
2023/12/12 02:35:39;;;;;;;22.70;13.70;;;;;;;6.90;92.47;98703.42;131750;1253;108214;-86
2023/12/12 02:38:45;;;;;;;23.40;13.70;;;;;;;6.92;92.35;98699.77;131705;1248;107564;-86
2023/12/12 02:41:50;;;;;;;18.50;12.20;;;;;;;6.93;92.46;98702.55;131672;1250;108527;-85
2023/12/12 02:44:57;;;;;;;16.80;11.00;;;;;;;6.92;92.47;98703.33;131607;1248;107198;-86
2023/12/12 02:48:04;;;;;;;16.70;10.50;;;;;;;6.90;92.62;98702.53;131739;1262;108601;-86
2023/12/12 02:51:09;;;;;;;19.50;12.20;;;;;;;6.90;92.70;98702.49;131626;1254;109756;-86
2023/12/12 02:54:15;;;;;;;20.30;12.50;;;;;;;6.90;92.62;98702.27;131713;1250;108694;-86
2023/12/12 02:57:21;;;;;;;19.60;12.10;;;;;;;6.91;92.65;98708.73;131666;1250;107479;-86
2023/12/12 03:00:27;;;;;;;23.00;13.20;;;;;;;6.94;92.67;98710.70;131693;1251;107403;-86
2023/12/12 03:03:33;;;;;;;19.60;12.50;;;;;;;6.97;92.80;98714.13;131786;1250;106483;-86
2023/12/12 03:06:38;;;;;;;16.70;10.60;;;;;;;6.96;92.79;98714.72;131742;1251;107592;-85
2023/12/12 03:09:44;;;;;;;17.20;10.40;;;;;;;6.93;92.74;98719.33;131741;1248;107593;-86
2023/12/12 03:12:49;;;;;;;19.50;11.50;;;;;;;6.94;92.99;98724.54;131803;1250;107702;-86
2023/12/12 03:15:55;;;;;;;17.70;11.60;;;;;;;6.97;93.10;98727.90;131659;1250;107877;-86
2023/12/12 03:19:01;;;;;;;17.80;12.00;;;;;;;7.02;92.92;98730.11;131657;1253;109206;-86
2023/12/12 03:22:06;;;;;;;17.30;11.70;;;;;;;7.04;93.11;98734.83;131734;1250;108722;-86
2023/12/12 03:25:13;;;;;;;19.70;13.10;;;;;;;7.05;92.96;98733.73;131749;1250;108710;-86
2023/12/12 03:28:18;;;;;;;19.20;11.30;;;;;;;7.00;92.97;98739.54;131799;1251;106873;-87
2023/12/12 03:31:24;;;;;;;15.90;10.60;;;;;;;6.99;93.00;98741.41;131746;1254;107697;-87
2023/12/12 03:34:29;;;;;;;20.10;12.10;;;;;;;7.00;93.40;98737.77;132038;1247;106761;-86
2023/12/12 03:37:35;;;;;;;19.80;12.50;;;;;;;7.02;93.28;98738.24;131809;1250;106249;-86
2023/12/12 03:40:41;;;;;;;36.70;25.40;;;;;;;7.07;93.26;98740.16;132095;1247;108008;-87
2023/12/12 03:43:47;;;;;;;39.20;28.70;;;;;;;7.09;93.22;98740.89;131879;1250;107448;-85
2023/12/12 03:46:52;;;;;;;69.70;39.90;;;;;;;7.10;93.23;98748.81;131561;1250;106738;-84
2023/12/12 03:49:58;;;;;;;70.80;43.40;;;;;;;7.09;93.37;98749.55;131936;1247;106371;-85
2023/12/12 03:53:03;;;;;;;40.80;27.20;;;;;;;7.10;93.28;98755.80;131847;1248;107468;-81
2023/12/12 03:56:10;;;;;;;36.90;24.20;;;;;;;7.13;93.56;98759.46;131960;1257;108074;-82
2023/12/12 03:59:16;;;;;;;137.50;78.60;;;;;;;7.14;93.36;98759.29;131784;1247;106847;-82
2023/12/12 04:02:21;;;;;;;42.80;26.50;;;;;;;7.16;93.56;98760.87;131744;1251;108216;-81
2023/12/12 04:05:27;;;;;;;29.90;20.50;;;;;;;7.15;93.39;98763.83;131734;1251;108975;-81
2023/12/12 04:08:34;;;;;;;27.60;18.10;;;;;;;7.13;93.52;98768.96;131756;1251;106300;-81
2023/12/12 04:11:39;;;;;;;19.10;13.30;;;;;;;7.10;93.62;98769.96;131656;1248;107452;-81
2023/12/12 04:14:45;;;;;;;19.80;13.70;;;;;;;7.08;93.89;98776.73;131488;1251;106791;-81
2023/12/12 04:17:51;;;;;;;298.00;144.90;;;;;;;7.11;93.86;98778.02;131634;1251;108749;-81
2023/12/12 04:20:57;;;;;;;275.50;125.10;;;;;;;7.15;93.73;98776.49;131802;1250;108681;-82
2023/12/12 04:24:02;;;;;;;64.40;34.90;;;;;;;7.17;93.74;98772.74;131815;1250;108448;-81
2023/12/12 04:27:08;;;;;;;46.70;30.20;;;;;;;7.17;93.76;98779.96;131697;1248;108120;-81
2023/12/12 04:30:14;;;;;;;99.30;66.90;;;;;;;7.17;93.91;98775.55;131731;1246;108828;-82
2023/12/12 04:33:20;;;;;;;125.60;70.80;;;;;;;7.15;93.72;98780.77;131668;1247;107405;-81
2023/12/12 04:36:25;;;;;;;213.80;107.50;;;;;;;7.09;93.93;98781.02;131626;1250;108706;-81
2023/12/12 04:39:31;;;;;;;189.40;101.30;;;;;;;7.08;94.04;98785.20;131686;1250;109108;-82
2023/12/12 04:42:37;;;;;;;143.40;89.50;;;;;;;7.10;94.00;98783.56;131701;1250;105406;-82
2023/12/12 04:45:42;;;;;;;89.60;58.90;;;;;;;7.13;94.24;98784.83;131742;1253;108752;-81
2023/12/12 04:48:48;;;;;;;61.60;41.30;;;;;;;7.13;94.00;98787.64;131723;1250;108679;-81
2023/12/12 04:51:54;;;;;;;25.50;17.50;;;;;;;7.13;94.15;98789.98;131619;1251;108395;-81
2023/12/12 04:54:59;;;;;;;42.20;28.40;;;;;;;7.13;94.22;98787.66;131644;1250;107800;-81
2023/12/12 04:58:05;;;;;;;147.40;90.50;;;;;;;7.14;94.18;98788.46;131680;1250;107713;-81
2023/12/12 05:01:11;;;;;;;88.70;58.70;;;;;;;7.16;94.48;98787.48;131682;1248;107593;-82
2023/12/12 05:04:16;;;;;;;122.30;72.10;;;;;;;7.21;94.45;98790.88;131801;1248;108197;-82
2023/12/12 05:07:22;;;;;;;117.70;72.80;;;;;;;7.24;94.18;98792.00;131744;1250;106720;-81
2023/12/12 05:10:28;;;;;;;83.50;50.60;;;;;;;7.23;94.32;98797.34;131756;1251;106767;-80
2023/12/12 05:13:34;;;;;;;61.90;37.20;;;;;;;7.23;94.38;98796.31;131704;1247;106550;-80
2023/12/12 05:16:39;;;;;;;200.30;99.20;;;;;;;7.25;94.33;98797.70;131732;1247;106715;-81
2023/12/12 05:19:45;;;;;;;275.10;128.30;;;;;;;7.28;94.33;98803.53;131787;1250;106958;-81
2023/12/12 05:22:50;;;;;;;432.90;213.00;;;;;;;7.31;94.30;98808.93;131639;1247;108565;-81
2023/12/12 05:25:56;;;;;;;455.90;212.00;;;;;;;7.31;94.33;98810.43;131651;1250;108648;-81
2023/12/12 05:29:02;;;;;;;339.70;136.20;;;;;;;7.32;94.31;98813.70;131679;1254;109911;-82
2023/12/12 05:32:08;;;;;;;339.60;120.50;;;;;;;7.32;94.40;98817.13;131659;1248;107105;-81
2023/12/12 05:35:14;;;;;;;202.10;68.20;;;;;;;7.30;94.29;98823.70;131812;1250;108310;-81
2023/12/12 05:38:27;;;;;;;408.80;154.60;;;;;;;7.31;94.56;98828.83;131656;1261;107660;-84
2023/12/12 05:41:33;;;;;;;823.10;373.00;;;;;;;7.34;94.43;98830.19;131678;1250;107873;-85
2023/12/12 05:44:39;;;;;;;205.90;68.30;;;;;;;7.36;94.63;98837.35;131959;1247;108762;-84
2023/12/12 05:47:44;;;;;;;220.50;81.00;;;;;;;7.37;94.60;98842.90;131792;1250;105883;-84
2023/12/12 05:50:50;;;;;;;265.10;100.50;;;;;;;7.37;94.48;98843.27;131884;1247;107811;-85
2023/12/12 05:53:55;;;;;;;98.90;47.90;;;;;;;7.37;94.45;98848.51;131655;1247;108416;-84
2023/12/12 05:57:01;;;;;;;51.20;38.50;;;;;;;7.39;94.38;98854.30;131736;1250;109093;-84
2023/12/12 06:00:09;;;;;;;107.90;75.90;;;;;;;7.40;94.69;98854.56;131676;1248;108134;-84
2023/12/12 06:03:18;;;;;;;76.40;46.60;;;;;;;7.41;94.57;98860.67;131753;1250;108680;-84
2023/12/12 06:06:23;;;;;;;93.90;62.60;;;;;;;7.40;94.79;98861.46;131719;1248;107542;-84
2023/12/12 06:09:29;;;;;;;79.80;49.70;;;;;;;7.39;94.84;98864.23;131688;1247;107731;-84
2023/12/12 06:12:35;;;;;;;137.00;81.70;;;;;;;7.34;94.84;98870.13;131642;1250;107560;-83
2023/12/12 06:15:41;;;;;;;114.80;75.00;;;;;;;7.29;95.09;98875.04;131651;1248;107184;-84
2023/12/12 06:18:46;;;;;;;75.90;56.50;;;;;;;7.27;94.93;98879.82;131722;1248;108603;-83
2023/12/12 06:21:53;;;;;;;48.50;39.40;;;;;;;7.31;95.11;98883.55;131734;1248;108034;-84
2023/12/12 06:24:59;;;;;;;42.70;33.00;;;;;;;7.35;95.17;98888.38;131667;1248;106309;-84
2023/12/12 06:28:05;;;;;;;20.00;15.40;;;;;;;7.40;95.00;98894.70;131664;1250;107198;-82
2023/12/12 06:31:11;;;;;;;20.60;17.40;;;;;;;7.45;94.72;98898.96;131691;1250;108546;-82
2023/12/12 06:34:16;;;;;;;14.40;11.30;;;;;;;7.47;95.06;98901.58;131706;1247;108703;-82
2023/12/12 06:37:22;;;;;;;15.80;11.90;;;;;;;7.45;94.96;98903.96;131551;1250;106140;-81
2023/12/12 06:40:28;;;;;;;32.50;23.50;;;;;;;7.36;95.18;98906.91;131640;1247;107689;-80
2023/12/12 06:43:33;;;;;;;29.90;24.30;;;;;;;7.35;95.21;98912.48;131714;1250;106766;-81
2023/12/12 06:46:39;;;;;;;21.30;16.50;;;;;;;7.39;95.18;98914.09;131643;1247;106506;-81
2023/12/12 06:49:44;;;;;;;30.10;19.70;;;;;;;7.43;95.22;98911.56;131731;1250;108707;-81
2023/12/12 06:52:50;;;;;;;427.30;213.20;;;;;;;7.43;95.29;98920.26;131684;1247;107643;-82
2023/12/12 06:55:56;;;;;;;629.40;273.00;;;;;;;7.42;95.28;98924.99;131683;1247;106885;-82
2023/12/12 06:59:01;;;;;;;980.20;445.70;;;;;;;7.42;95.09;98930.61;131670;1250;108951;-83
2023/12/12 07:02:08;;;;;;;750.40;312.50;;;;;;;7.45;95.28;98932.77;131672;1253;107653;-83
2023/12/12 07:05:15;;;;;;;457.00;172.50;;;;;;;7.50;95.23;98931.92;131644;1250;108821;-84
2023/12/12 07:08:21;;;;;;;841.50;418.30;;;;;;;7.53;94.94;98926.21;131656;1248;108432;-83
2023/12/12 07:11:27;;;;;;;566.10;226.00;;;;;;;7.55;95.08;98933.70;131711;1247;108951;-82
2023/12/12 07:14:32;;;;;;;463.90;176.70;;;;;;;7.55;95.15;98939.70;131800;1250;106358;-84
2023/12/12 07:17:38;;;;;;;356.00;138.80;;;;;;;7.52;95.16;98939.16;131812;1248;108676;-81
2023/12/12 07:20:44;;;;;;;376.90;175.50;;;;;;;7.51;95.00;98940.73;131774;1247;107837;-81
2023/12/12 07:23:51;;;;;;;209.30;102.70;;;;;;;7.51;95.21;98943.81;131715;1248;108632;-82
2023/12/12 07:26:57;;;;;;;182.00;104.80;;;;;;;7.52;95.05;98945.13;131721;1250;106892;-81
2023/12/12 07:30:03;;;;;;;123.70;69.30;;;;;;;7.55;95.29;98945.16;131765;1250;108580;-82
2023/12/12 07:33:09;;;;;;;321.90;143.70;;;;;;;7.56;95.24;98948.81;131719;1250;108827;-82
2023/12/12 07:36:15;;;;;;;849.90;454.20;;;;;;;7.56;95.35;98952.16;131769;1250;107516;-81
2023/12/12 07:39:20;;;;;;;662.40;344.40;;;;;;;7.57;95.28;98960.41;131657;1248;108681;-81
2023/12/12 07:42:26;;;;;;;304.30;146.30;;;;;;;7.57;95.08;98967.06;131632;1248;107001;-82
2023/12/12 07:45:31;;;;;;;227.70;120.40;;;;;;;7.59;95.36;98971.41;131694;1250;107192;-81
2023/12/12 07:48:38;;;;;;;138.00;78.50;;;;;;;7.63;95.06;98974.73;131736;1255;108742;-82
2023/12/12 07:51:43;;;;;;;125.60;76.70;;;;;;;7.66;95.02;98980.29;131738;1250;108657;-83
2023/12/12 07:54:49;;;;;;;56.30;34.90;;;;;;;7.66;95.03;98986.08;131709;1248;107128;-82
2023/12/12 07:57:55;;;;;;;50.00;33.80;;;;;;;7.62;95.11;98989.38;131559;1250;108677;-80
2023/12/12 08:01:00;;;;;;;40.10;25.70;;;;;;;7.61;94.91;98996.90;131646;1248;107242;-82
2023/12/12 08:04:06;;;;;;;28.40;15.60;;;;;;;7.62;95.26;98995.87;131687;1248;108738;-82
2023/12/12 08:07:12;;;;;;;13.80;11.00;;;;;;;7.63;94.99;98996.84;131687;1248;109454;-82
2023/12/12 08:10:20;;;;;;;16.70;11.60;;;;;;;7.63;95.13;99004.10;131684;1250;107480;-81
2023/12/12 08:13:26;;;;;;;16.50;12.00;;;;;;;7.62;95.14;99004.23;131676;1250;107949;-81
2023/12/12 08:16:32;;;;;;;18.40;9.60;;;;;;;7.56;94.82;99003.44;131656;1251;108239;-82
2023/12/12 08:19:38;;;;;;;16.80;8.50;;;;;;;7.52;94.79;99003.49;131802;1250;105625;-81
2023/12/12 08:22:43;;;;;;;13.60;8.80;;;;;;;7.53;95.36;99006.45;131832;1247;107059;-82
2023/12/12 08:25:50;;;;;;;14.60;8.00;;;;;;;7.55;95.27;99008.02;131842;1247;107433;-82
2023/12/12 08:28:56;;;;;;;18.20;9.30;;;;;;;7.55;95.09;99012.48;131768;1248;108814;-82
2023/12/12 08:32:02;;;;;;;9.80;6.60;;;;;;;7.54;95.19;99018.73;131783;1252;107771;-83
2023/12/12 08:35:08;;;;;;;17.20;8.00;;;;;;;7.47;95.08;99024.16;131933;1250;106865;-83
2023/12/12 08:38:14;;;;;;;13.70;6.90;;;;;;;7.47;95.26;99029.70;131666;1247;106757;-81
2023/12/12 08:41:20;;;;;;;12.70;6.60;;;;;;;7.46;95.01;99036.51;131675;1248;106528;-82
2023/12/12 08:44:25;;;;;;;20.80;9.30;;;;;;;7.45;95.27;99043.33;131730;1250;105915;-81
2023/12/12 08:47:31;;;;;;;28.80;11.40;;;;;;;7.46;95.07;99046.25;131651;1250;108159;-82
2023/12/12 08:50:37;;;;;;;15.90;8.50;;;;;;;7.45;95.14;99056.08;131715;1251;107606;-81
2023/12/12 08:53:42;;;;;;;10.20;5.60;;;;;;;7.39;94.89;99057.92;131740;1247;106573;-82
2023/12/12 08:56:52;;;;;;;9.50;5.20;;;;;;;7.35;94.89;99063.53;131642;1253;106199;-81
2023/12/12 08:59:58;;;;;;;7.90;5.00;;;;;;;7.35;95.09;99071.38;131763;1250;106500;-82
2023/12/12 09:03:03;;;;;;;23.00;13.10;;;;;;;7.34;94.80;99075.52;131700;1250;107327;-82
2023/12/12 09:06:10;;;;;;;18.30;7.70;;;;;;;7.33;94.93;99079.19;131784;1247;106731;-82
2023/12/12 09:09:16;;;;;;;13.50;6.70;;;;;;;7.31;94.72;99084.99;131657;1248;106839;-81
2023/12/12 09:12:22;;;;;;;12.10;6.50;;;;;;;7.29;94.75;99082.23;131687;1250;107524;-83
2023/12/12 09:15:27;;;;;;;14.70;6.90;;;;;;;7.21;94.60;99086.09;131728;1251;106345;-82
2023/12/12 09:18:33;;;;;;;16.80;7.10;;;;;;;7.16;94.81;99089.21;131650;1250;107071;-82
2023/12/12 09:21:39;;;;;;;16.60;7.20;;;;;;;7.14;94.86;99089.58;131678;1248;107630;-82
2023/12/12 09:24:45;;;;;;;15.50;9.50;;;;;;;7.13;94.80;99090.20;131723;1262;106247;-83
2023/12/12 09:27:51;;;;;;;144.40;58.00;;;;;;;7.08;94.89;99096.91;131699;1250;107188;-83
2023/12/12 09:30:56;;;;;;;122.10;45.60;;;;;;;7.03;94.94;99098.87;131654;1248;106624;-83
2023/12/12 09:34:02;;;;;;;90.70;34.10;;;;;;;6.99;95.17;99106.88;131739;1253;107090;-83
2023/12/12 09:37:08;;;;;;;269.00;85.50;;;;;;;6.96;95.05;99111.08;131750;1251;107714;-83
2023/12/12 09:40:14;;;;;;;32.10;18.10;;;;;;;6.89;95.37;99117.61;131683;1247;108722;-81
2023/12/12 09:43:26;;;;;;;46.10;20.40;;;;;;;6.73;95.79;99130.95;131613;1247;106623;-82
2023/12/12 09:46:32;;;;;;;30.40;15.60;;;;;;;6.51;96.66;99141.62;131605;1247;106485;-83
2023/12/12 09:49:39;;;;;;;19.20;11.40;;;;;;;6.27;97.29;99152.71;131652;1250;106179;-82
2023/12/12 09:52:47;;;;;;;20.20;12.60;;;;;;;6.07;97.52;99158.56;131723;1247;105804;-82
2023/12/12 09:55:54;;;;;;;22.80;13.30;;;;;;;5.88;97.74;99164.38;131685;1248;107406;-83
2023/12/12 09:59:00;;;;;;;25.30;14.50;;;;;;;5.77;98.59;99176.66;131640;1250;108511;-82
2023/12/12 10:02:07;;;;;;;26.00;15.60;;;;;;;5.69;97.86;99184.62;131618;1260;107414;-82
2023/12/12 10:05:14;;;;;;;58.10;27.00;;;;;;;5.63;98.40;99191.39;131756;1248;106777;-83
2023/12/12 10:08:20;;;;;;;20.40;11.90;;;;;;;5.51;98.11;99202.22;131617;1248;106297;-82
2023/12/12 10:11:26;;;;;;;20.00;11.50;;;;;;;5.43;98.44;99204.05;131745;1248;106612;-83
2023/12/12 10:14:47;;;;;;;15.80;9.80;;;;;;;5.28;98.70;99202.23;131740;1252;106588;-83
2023/12/12 10:17:58;;;;;;;18.00;11.40;;;;;;;5.21;99.00;99209.25;131731;1250;107635;-83
2023/12/12 10:21:16;;;;;;;23.20;13.60;;;;;;;5.17;98.73;99212.16;131709;1250;106837;-83
2023/12/12 10:24:28;;;;;;;14.10;8.80;;;;;;;5.17;98.65;99217.75;131792;1250;107609;-83
2023/12/12 10:27:34;;;;;;;13.60;8.60;;;;;;;5.20;98.37;99221.91;131702;1248;106555;-82
2023/12/12 10:30:40;;;;;;;14.80;9.70;;;;;;;5.21;98.50;99223.58;131747;1250;106095;-84
2023/12/12 10:33:46;;;;;;;15.00;9.80;;;;;;;5.23;98.82;99225.28;131671;1251;107505;-82
2023/12/12 10:36:51;;;;;;;19.50;12.60;;;;;;;5.23;98.53;99234.84;131687;1250;107512;-83
2023/12/12 10:40:11;;;;;;;20.10;12.30;;;;;;;5.21;98.41;99239.06;131644;1248;109181;-83
2023/12/12 10:43:18;;;;;;;15.60;8.90;;;;;;;5.21;98.24;99246.88;131688;1250;106401;-84
2023/12/12 10:46:26;;;;;;;16.10;9.30;;;;;;;5.24;98.33;99247.46;131734;1253;107652;-82
2023/12/12 10:49:33;;;;;;;16.80;11.00;;;;;;;5.24;97.85;99246.94;131703;1250;107580;-83
2023/12/12 10:52:40;;;;;;;20.90;12.40;;;;;;;5.24;97.80;99254.30;131768;1253;107805;-83
2023/12/12 10:55:47;;;;;;;14.10;8.10;;;;;;;5.22;97.75;99259.05;131707;1250;107367;-82
2023/12/12 10:58:53;;;;;;;17.00;10.70;;;;;;;5.20;97.42;99255.88;131741;1250;106720;-82
2023/12/12 11:02:00;;;;;;;14.60;10.20;;;;;;;5.25;97.51;99262.02;131726;1247;109269;-83
2023/12/12 11:05:08;;;;;;;15.80;10.80;;;;;;;5.23;97.26;99261.84;131624;1250;108849;-81
2023/12/12 11:08:14;;;;;;;14.50;8.90;;;;;;;5.21;97.10;99268.02;131687;1254;108879;-82
2023/12/12 11:11:21;;;;;;;18.90;12.20;;;;;;;5.13;97.00;99275.31;131590;1251;106699;-84
2023/12/12 11:14:28;;;;;;;22.80;13.10;;;;;;;5.01;97.35;99268.48;131670;1250;107910;-83
2023/12/12 11:17:34;;;;;;;25.30;14.10;;;;;;;4.92;97.56;99264.69;131669;1254;106834;-82
2023/12/12 11:20:40;;;;;;;17.10;10.60;;;;;;;4.92;97.95;99269.44;131698;1251;107895;-82
2023/12/12 11:23:55;;;;;;;16.00;9.50;;;;;;;4.90;97.79;99269.61;131640;1250;106581;-84
2023/12/12 11:27:01;;;;;;;17.00;10.60;;;;;;;4.95;98.10;99269.02;131642;1249;106850;-84
2023/12/12 11:30:08;;;;;;;252.80;107.50;;;;;;;4.99;98.01;99270.92;131715;1250;107201;-83
2023/12/12 11:33:14;;;;;;;350.20;140.20;;;;;;;5.09;97.77;99274.23;131541;1250;107648;-83
2023/12/12 11:36:29;;;;;;;82.10;37.40;;;;;;;5.26;97.85;99274.04;131727;1250;108054;-81
2023/12/12 11:39:49;;;;;;;192.80;72.70;;;;;;;5.34;97.20;99274.20;131690;1250;106482;-81
2023/12/12 11:43:01;;;;;;;45.70;22.20;;;;;;;5.35;97.31;99273.08;131672;1251;106270;-82
2023/12/12 11:46:18;;;;;;;96.00;38.80;;;;;;;5.34;97.00;99273.52;131693;1254;107906;-82
2023/12/12 11:49:25;;;;;;;46.50;22.00;;;;;;;5.38;96.95;99278.27;131637;1253;106795;-82
2023/12/12 11:52:51;;;;;;;284.10;121.50;;;;;;;5.42;96.84;99279.27;131723;1250;105929;-81
2023/12/12 11:56:03;;;;;;;236.00;93.90;;;;;;;5.56;97.27;99277.45;131716;1246;108599;-83
2023/12/12 11:59:09;;;;;;;81.20;38.00;;;;;;;5.61;96.47;99278.73;131821;1247;106749;-84
2023/12/12 12:02:18;;;;;;;19.70;11.20;;;;;;;5.58;96.40;99279.35;131733;1248;106525;-83
2023/12/12 12:05:27;;;;;;;44.60;25.70;;;;;;;5.48;96.24;99282.06;131524;1246;108575;-84
2023/12/12 12:08:33;;;;;;;18.90;13.30;;;;;;;5.44;96.54;99287.84;131858;1249;108703;-83
2023/12/12 12:11:40;;;;;;;31.00;21.80;;;;;;;5.51;96.71;99288.27;131836;1247;108440;-83
2023/12/12 12:14:45;;;;;;;182.70;92.80;;;;;;;5.60;96.55;99284.96;131654;1250;108660;-83
2023/12/12 12:17:51;;;;;;;64.60;35.70;;;;;;;5.64;96.37;99285.85;131643;1247;106520;-82
2023/12/12 12:21:02;;;;;;;18.10;11.40;;;;;;;5.57;96.03;99290.92;131890;1250;106676;-82
2023/12/12 12:24:08;;;;;;;104.60;63.80;;;;;;;5.51;96.19;99296.79;131906;1248;106554;-83
2023/12/12 12:27:15;;;;;;;17.20;11.50;;;;;;;5.53;96.58;99294.45;131882;1248;107614;-81
2023/12/12 12:30:22;;;;;;;26.30;19.50;;;;;;;5.59;96.23;99294.28;131641;1250;107700;-82
2023/12/12 12:33:34;;;;;;;14.20;10.20;;;;;;;5.65;96.50;99294.75;131903;1248;107537;-83
2023/12/12 12:36:39;;;;;;;;;;;;;;;5.69;96.31;99300.73;132029;1250;109871;-82
2023/12/12 12:39:45;;;;;;;17.10;12.10;;;;;;;5.72;96.49;99305.19;131800;1250;108636;-81
2023/12/12 12:42:50;;;;;;;11.50;8.50;;;;;;;5.71;96.26;99307.61;131634;1250;106458;-81
2023/12/12 12:45:58;;;;;;;30.00;17.00;;;;;;;5.62;96.37;99312.30;131685;1250;106798;-82
2023/12/12 12:49:04;;;;;;;49.10;23.30;;;;;;;5.62;96.52;99317.25;131682;1246;106958;-82
2023/12/12 12:52:09;;;;;;;192.00;95.80;;;;;;;5.68;96.64;99317.40;131697;1250;107750;-82
2023/12/12 12:55:15;;;;;;;428.60;220.20;;;;;;;5.79;96.64;99320.45;131726;1250;107468;-81
2023/12/12 12:58:21;;;;;;;289.50;134.10;;;;;;;5.86;96.12;99323.92;131731;1251;108633;-83
2023/12/12 13:01:26;;;;;;;173.60;88.50;;;;;;;5.87;96.12;99326.38;131693;1250;108554;-83
2023/12/12 13:04:32;;;;;;;49.50;26.90;;;;;;;5.93;96.01;99328.10;131695;1250;106320;-83
2023/12/12 13:07:38;;;;;;;50.00;33.50;;;;;;;5.93;96.05;99328.08;131888;1250;108196;-82
2023/12/12 13:10:44;;;;;;;15.80;10.70;;;;;;;5.94;95.92;99324.48;131327;1247;430449;-83
2023/12/12 13:13:50;;;;;;;74.70;50.20;;;;;;;5.96;95.98;99325.33;131720;1248;108051;-82
2023/12/12 13:16:56;;;;;;;95.60;57.20;;;;;;;6.04;96.01;99325.86;131835;1247;108507;-83
2023/12/12 13:20:08;;;;;;;34.90;19.60;;;;;;;6.13;95.86;99324.81;131873;1250;106251;-81
2023/12/12 13:23:14;;;;;;;48.30;32.50;;;;;;;6.15;95.61;99329.43;131980;1248;107682;-83
2023/12/12 13:26:22;;;;;;;32.90;22.50;;;;;;;6.15;95.60;99328.48;131835;1250;106499;-82
2023/12/12 13:29:27;;;;;;;46.70;26.00;;;;;;;6.17;95.76;99326.95;131658;1253;108744;-82
2023/12/12 13:32:36;;;;;;;88.30;34.60;;;;;;;6.15;95.34;99325.80;131801;1250;108598;-82
2023/12/12 13:35:42;;;;;;;79.90;34.70;;;;;;;6.16;95.50;99328.59;131769;1250;106337;-81
2023/12/12 13:38:47;;;;;;;44.00;29.80;;;;;;;6.21;95.30;99332.30;131726;1253;106218;-83
2023/12/12 13:41:53;;;;;;;20.60;12.40;;;;;;;6.26;95.05;99333.25;131731;1254;108438;-81
2023/12/12 13:44:59;;;;;;;16.90;13.30;;;;;;;6.21;94.30;99334.98;131734;1248;107191;-82
2023/12/12 13:48:05;;;;;;;24.60;15.40;;;;;;;6.17;94.90;99330.45;131721;1250;106736;-82
2023/12/12 13:51:11;;;;;;;24.90;16.60;;;;;;;6.17;94.87;99322.98;131799;1250;107372;-82
2023/12/12 13:54:17;;;;;;;19.90;11.40;;;;;;;6.18;94.67;99325.24;131855;1250;106710;-81
2023/12/12 13:57:23;;;;;;;19.90;11.60;;;;;;;6.16;94.73;99326.50;131914;1247;108416;-82
2023/12/12 14:00:29;;;;;;;20.40;12.90;;;;;;;6.15;94.68;99328.02;131821;1248;106194;-81
2023/12/12 14:03:35;;;;;;;19.80;13.20;;;;;;;6.17;94.85;99332.17;131738;1250;107825;-82
2023/12/12 14:06:40;;;;;;;28.80;19.00;;;;;;;6.19;94.54;99328.96;131755;1248;108560;-81